Terminal Aerodrome Forecast
Issued by NWS

Home | Current Version | Previous Version | Graphics & Text | Print | Product List | Glossary On
Versions: 1 2 3 4 5 6 7 8 9 10 11 12
000
FTUS45 KGGW 171120
TAFOLF
TAF
KOLF 171120Z 1712/1812 27010KT P6SM BKN130
     FM180600 06013KT 3SM -SN OVC010
     FM180900 05018KT 1SM -SN BLSN OVC010=

USA.gov is the U.S. government's official web portal to all federal, state and local government web resources and services.